»·PEaware :: N5627E KSFO-KLAX

N5627E :: KSFO-KLAX

FLIGHT INFORMATION

Flight Status: Arrived
Operator: Privately registered:
United States
More flights under this callsign
Pilot: Jeb B. (17306)
Aircraft: Unknown
(E50P)
More flights by this aircraft type
Origin: KSFO San Francisco Intl
United States
Destination: KLAX Los Angeles Intl
United States
More flights between these airports :: More routes between these airports
Route: +SSTIK3 EBAYE AVE SADDE8
File this flight plan on PilotEdge
Remarks:
Altitude:
(Current/Filed)
23,000ft
Speed:
(Current/Filed)
275kts
Departed: 01-Jan-18 05:29 PM
Arrived: 01-Jan-18 06:36 PM
Distance/Time
Traveled:
294nm/1:07
Distance/Time
To Go:
Arrived

Flight Plot

Page will automatically refresh every two minutes.

Flight plan parsing failed; only flown route is shown


Map Options




Map Legend


Flown Route
Filed Route
Departure Airport
Arrival Airport
Navaid (VOR, NDB)
Fix

Horizontal Profiles

Position Reports

Time Latitude Longitude Heading Altitude Ground
Speed
01-Jan-18 17:12 37.627649 -122.383078 300 15ft 0kts
01-Jan-18 17:13 37.627649 -122.383078 299 15ft 0kts
01-Jan-18 17:14 37.627649 -122.383078 300 15ft 0kts
01-Jan-18 17:15 37.627649 -122.383078 300 15ft 0kts
01-Jan-18 17:16 37.627649 -122.383078 300 15ft 0kts
01-Jan-18 17:17 37.627649 -122.383078 300 15ft 0kts
01-Jan-18 17:18 37.627649 -122.383078 300 15ft 0kts
01-Jan-18 17:19 37.627649 -122.383078 300 15ft 0kts
01-Jan-18 17:20 37.627649 -122.383078 300 15ft 0kts
01-Jan-18 17:21 37.627649 -122.383078 300 15ft 0kts
01-Jan-18 17:22 37.627649 -122.383078 300 15ft 0kts
01-Jan-18 17:23 37.627510 -122.383288 184 15ft 7kts
01-Jan-18 17:24 37.625785 -122.383512 222 20ft 2kts
01-Jan-18 17:25 37.623888 -122.384931 208 25ft 1kts
01-Jan-18 17:26 37.621098 -122.383657 119 30ft 11kts
01-Jan-18 17:27 37.619193 -122.379526 137 29ft 14kts
01-Jan-18 17:28 37.614421 -122.380167 207 30ft 18kts
01-Jan-18 17:29 37.611565 -122.382121 215 30ft 0kts
01-Jan-18 17:30 37.611181 -122.382389 154 30ft 6kts
01-Jan-18 17:31 37.613759 -122.380269 97 30ft 0kts
01-Jan-18 17:32 37.613759 -122.380269 97 30ft 0kts
01-Jan-18 17:33 37.610750 -122.382589 207 30ft 23kts
01-Jan-18 17:34 37.609307 -122.383199 138 29ft 0kts
01-Jan-18 17:35 37.614079 -122.378860 27 27ft 104kts
01-Jan-18 17:36 37.666745 -122.372041 329 116ft 312kts
01-Jan-18 17:37 37.683795 -122.474483 239 2171ft 339kts
01-Jan-18 17:38 37.609104 -122.507737 176 4890ft 273kts
01-Jan-18 17:39 37.540419 -122.500749 176 5989ft 246kts
01-Jan-18 17:40 37.481239 -122.470664 125 7030ft 246kts
01-Jan-18 17:41 37.438352 -122.405028 133 8069ft 243kts
01-Jan-18 17:42 37.392153 -122.341693 133 9130ft 275kts
01-Jan-18 17:43 37.339302 -122.269928 133 10171ft 291kts
01-Jan-18 17:44 37.284515 -122.195741 133 11205ft 297kts
01-Jan-18 17:45 37.228409 -122.119959 133 12251ft 297kts
01-Jan-18 17:46 37.173224 -122.045524 134 13279ft 296kts
01-Jan-18 17:47 37.117898 -121.971131 134 14312ft 301kts
01-Jan-18 17:48 37.059861 -121.893270 134 15356ft 317kts
01-Jan-18 17:49 36.995030 -121.806546 134 16411ft 364kts
01-Jan-18 17:50 36.924328 -121.712183 134 17456ft 381kts
01-Jan-18 17:51 36.853667 -121.618155 134 18477ft 387kts
01-Jan-18 17:52 36.780601 -121.521286 135 19526ft 389kts
01-Jan-18 17:53 36.706855 -121.423683 135 20581ft 390kts
01-Jan-18 17:54 36.636661 -121.331114 136 21582ft 389kts
01-Jan-18 17:55 36.564015 -121.235581 136 22609ft 390kts
01-Jan-18 17:56 36.483790 -121.130489 136 22964ft 463kts
01-Jan-18 17:57 36.393101 -121.006773 133 22966ft 510kts
01-Jan-18 17:58 36.299468 -120.872218 133 22964ft 523kts
01-Jan-18 17:59 36.204864 -120.736916 133 22964ft 524kts
01-Jan-18 18:00 36.111293 -120.603635 133 22964ft 524kts
01-Jan-18 18:01 36.016260 -120.468757 132 22966ft 524kts
01-Jan-18 18:02 35.925814 -120.341031 133 22975ft 520kts
01-Jan-18 18:03 35.835605 -120.218168 136 22966ft 514kts
01-Jan-18 18:04 35.737277 -120.093133 136 22974ft 513kts
01-Jan-18 18:05 35.653392 -119.986409 137 22954ft 352kts
01-Jan-18 18:06 35.588784 -119.927889 150 22547ft 259kts
01-Jan-18 18:07 35.532396 -119.879407 149 20897ft 247kts
01-Jan-18 18:08 35.477760 -119.832264 148 19235ft 239kts
01-Jan-18 18:09 35.423635 -119.785668 148 17404ft 252kts
01-Jan-18 18:10 35.362408 -119.733004 146 15563ft 292kts
01-Jan-18 18:11 35.293365 -119.673651 146 13684ft 310kts
01-Jan-18 18:12 35.223739 -119.613928 145 12026ft 302kts
01-Jan-18 18:13 35.160557 -119.559840 145 11999ft 265kts
01-Jan-18 18:14 35.099960 -119.508147 145 12010ft 273kts
01-Jan-18 18:15 35.037594 -119.454997 145 12011ft 287kts
01-Jan-18 18:16 34.970804 -119.398203 145 11998ft 301kts
01-Jan-18 18:17 34.905609 -119.342960 145 11995ft 301kts
01-Jan-18 18:18 34.841145 -119.288298 145 11996ft 298kts
01-Jan-18 18:19 34.773801 -119.231331 145 11975ft 298kts
01-Jan-18 18:20 34.704124 -119.172531 145 11952ft 315kts
01-Jan-18 18:21 34.632032 -119.111852 145 11348ft 310kts
01-Jan-18 18:22 34.563180 -119.054024 145 10297ft 297kts
01-Jan-18 18:23 34.498355 -118.999690 145 10135ft 278kts
01-Jan-18 18:24 34.433707 -118.945597 145 9106ft 294kts
01-Jan-18 18:25 34.366066 -118.889093 144 8063ft 300kts
01-Jan-18 18:26 34.287565 -118.855698 163 7023ft 306kts
01-Jan-18 18:27 34.210240 -118.827385 163 6989ft 286kts
01-Jan-18 18:28 34.162117 -118.761301 111 6498ft 281kts
01-Jan-18 18:29 34.133207 -118.674135 111 5524ft 281kts
01-Jan-18 18:30 34.105114 -118.588270 111 4993ft 267kts
01-Jan-18 18:31 34.078950 -118.508364 111 4974ft 254kts
01-Jan-18 18:32 34.052480 -118.426680 111 3762ft 272kts
01-Jan-18 18:33 34.027329 -118.347701 112 2989ft 262kts
01-Jan-18 18:34 34.023089 -118.268642 82 2984ft 243kts
01-Jan-18 18:35 34.032501 -118.190623 90 2978ft 235kts
01-Jan-18 18:36 33.985079 -118.156266 179 2612ft 228kts
01-Jan-18 18:37 33.945425 -118.194424 284 1989ft 210kts
01-Jan-18 18:38 33.950206 -118.256310 264 1987ft 185kts
01-Jan-18 18:39 33.944749 -118.311246 262 1281ft 127kts
01-Jan-18 18:40 33.940772 -118.349936 262 666ft 110kts
01-Jan-18 18:41 33.937125 -118.385128 262 129ft 102kts
01-Jan-18 18:42 33.934965 -118.401715 236 118ft 18kts
01-Jan-18 18:43 33.934384 -118.399568 83 114ft 24kts
01-Jan-18 18:44 33.934637 -118.397372 82 111ft 16kts
01-Jan-18 18:45 33.935410 -118.389638 81 104ft 22kts
01-Jan-18 18:46 33.934439 -118.387101 172 102ft 8kts
01-Jan-18 18:47 33.934021 -118.387034 172 102ft 0kts

Navigation Log

Ident Type
Flight plan parsing failed, navigation log unavailable